createdAt,value
2023-03-17T00:01:52.688Z,8.59
2023-03-17T00:04:19.525Z,8.92
2023-03-17T00:06:47.253Z,8.51
2023-03-17T00:09:15.710Z,8.91
2023-03-17T00:11:43.503Z,8.80
2023-03-17T00:14:10.775Z,8.80
2023-03-17T00:16:43.043Z,8.85
2023-03-17T00:19:15.854Z,8.73
2023-03-17T00:21:42.374Z,8.79
2023-03-17T00:24:14.706Z,8.51
2023-03-17T00:26:41.608Z,8.83
2023-03-17T00:29:08.031Z,8.85
2023-03-17T00:31:35.088Z,8.87
2023-03-17T00:34:02.063Z,8.83
2023-03-17T00:36:31.298Z,8.89
2023-03-17T00:38:58.176Z,8.89
2023-03-17T00:41:24.937Z,8.82
2023-03-17T00:43:51.404Z,8.83
2023-03-17T00:46:37.363Z,8.81
2023-03-17T00:49:20.517Z,8.71
2023-03-17T00:51:47.435Z,8.76
2023-03-17T00:54:14.421Z,8.61
2023-03-17T00:56:41.840Z,8.70
2023-03-17T00:59:19.380Z,8.67
2023-03-17T01:01:46.601Z,8.62
2023-03-17T01:04:13.183Z,8.65
2023-03-17T01:06:40.025Z,8.52
2023-03-17T01:09:06.676Z,8.59
2023-03-17T01:11:33.208Z,8.22
2023-03-17T01:13:59.707Z,8.61
2023-03-17T01:16:26.500Z,8.52
2023-03-17T01:18:53.201Z,8.64
2023-03-17T01:21:19.800Z,8.63
2023-03-17T01:23:46.304Z,8.57
2023-03-17T01:26:12.767Z,8.14
2023-03-17T01:28:39.280Z,8.53
2023-03-17T01:31:05.776Z,8.45
2023-03-17T01:33:32.191Z,8.16
2023-03-17T01:35:58.618Z,8.19
2023-03-17T01:38:25.164Z,8.51
2023-03-17T01:40:52.593Z,8.62
2023-03-17T01:43:25.605Z,8.58
2023-03-17T01:46:19.282Z,8.62
2023-03-17T01:49:35.041Z,8.61
2023-03-17T01:52:04.270Z,8.68
2023-03-17T01:54:42.469Z,8.68
2023-03-17T01:57:16.866Z,8.27
2023-03-17T01:59:56.086Z,8.30
2023-03-17T02:02:35.496Z,8.70
2023-03-17T02:05:04.913Z,8.73
2023-03-17T02:07:31.842Z,8.79
2023-03-17T02:09:58.852Z,8.38
2023-03-17T02:12:28.443Z,8.80
2023-03-17T02:14:55.280Z,8.83
2023-03-17T02:17:23.809Z,8.82
2023-03-17T02:19:51.717Z,8.84
2023-03-17T02:22:19.331Z,8.44
2023-03-17T02:24:53.109Z,8.85
2023-03-17T02:27:27.347Z,8.83
2023-03-17T02:29:54.215Z,8.90
2023-03-17T02:32:21.196Z,8.92
2023-03-17T02:34:48.662Z,8.55
2023-03-17T02:37:16.324Z,8.92
2023-03-17T02:39:43.040Z,8.96
2023-03-17T02:42:10.461Z,8.96
2023-03-17T02:44:36.997Z,8.98
2023-03-17T02:47:03.497Z,8.97
2023-03-17T02:49:31.615Z,8.96
2023-03-17T02:51:58.136Z,8.52
2023-03-17T02:54:25.079Z,8.78
2023-03-17T02:56:51.557Z,8.99
2023-03-17T02:59:18.035Z,8.79
2023-03-17T03:01:44.636Z,8.92
2023-03-17T03:04:11.215Z,8.90
2023-03-17T03:06:37.656Z,8.48
2023-03-17T03:09:04.316Z,8.91
2023-03-17T03:11:30.918Z,8.85
2023-03-17T03:13:57.462Z,8.67
2023-03-17T03:16:24.096Z,8.65
2023-03-17T03:18:50.633Z,8.93
2023-03-17T03:21:17.296Z,8.97
2023-03-17T03:23:43.799Z,8.99
2023-03-17T03:26:10.404Z,8.94
2023-03-17T03:28:36.873Z,8.94
2023-03-17T03:31:03.761Z,9.02
2023-03-17T03:33:30.290Z,8.87
2023-03-17T03:35:56.967Z,8.32
2023-03-17T03:38:23.550Z,8.72
2023-03-17T03:40:49.992Z,8.62
2023-03-17T03:43:23.476Z,8.70
2023-03-17T03:45:50.722Z,8.47
2023-03-17T03:48:17.383Z,8.44
2023-03-17T03:50:43.875Z,8.33
2023-03-17T03:53:10.595Z,8.33
2023-03-17T03:55:37.332Z,8.65
2023-03-17T03:58:03.887Z,8.61
2023-03-17T04:00:30.658Z,8.64
2023-03-17T04:02:57.237Z,8.67
2023-03-17T04:05:23.694Z,8.58
2023-03-17T04:07:50.129Z,8.56
2023-03-17T04:10:17.457Z,8.58
2023-03-17T04:12:43.959Z,8.31
2023-03-17T04:15:13.948Z,8.03
2023-03-17T04:17:40.483Z,8.23
2023-03-17T04:20:07.567Z,8.45
2023-03-17T04:22:34.127Z,8.44
2023-03-17T04:25:00.611Z,8.55
2023-03-17T04:27:27.132Z,8.44
2023-03-17T04:29:53.589Z,8.29
2023-03-17T04:32:20.210Z,8.41
2023-03-17T04:34:46.685Z,8.25
2023-03-17T04:37:14.169Z,8.26
2023-03-17T04:39:40.618Z,7.90
2023-03-17T04:42:07.520Z,8.37
2023-03-17T04:44:34.294Z,8.08
2023-03-17T04:47:00.769Z,8.38
2023-03-17T04:49:27.348Z,8.38
2023-03-17T04:51:54.147Z,8.17
2023-03-17T04:54:21.101Z,8.35
2023-03-17T04:56:47.698Z,8.35
2023-03-17T04:59:14.341Z,8.29
2023-03-17T05:01:40.948Z,8.38
2023-03-17T05:04:07.500Z,8.36
2023-03-17T05:06:34.033Z,8.23
2023-03-17T05:09:00.470Z,8.24
2023-03-17T05:11:26.996Z,8.34
2023-03-17T05:13:53.546Z,7.90
2023-03-17T05:16:20.229Z,8.35
2023-03-17T05:18:46.758Z,8.42
2023-03-17T05:21:13.170Z,8.48
2023-03-17T05:23:39.694Z,8.08
2023-03-17T05:26:06.209Z,8.00
2023-03-17T05:28:33.084Z,8.40
2023-03-17T05:30:59.857Z,8.00
2023-03-17T05:33:26.425Z,8.35
2023-03-17T05:35:52.954Z,8.45
2023-03-17T05:38:19.469Z,8.29
2023-03-17T05:40:45.980Z,8.16
2023-03-17T05:43:12.495Z,8.11
2023-03-17T05:45:38.950Z,8.19
2023-03-17T05:48:05.477Z,8.27
2023-03-17T05:50:32.293Z,8.20
2023-03-17T05:52:59.220Z,7.89
2023-03-17T05:55:26.774Z,8.16
2023-03-17T05:57:53.250Z,8.02
2023-03-17T06:00:20.276Z,7.48
2023-03-17T06:02:47.073Z,7.96
2023-03-17T06:05:13.642Z,7.92
2023-03-17T06:07:51.638Z,8.07
2023-03-17T06:10:21.422Z,8.08
2023-03-17T06:12:47.943Z,8.10
2023-03-17T06:15:14.386Z,7.99
2023-03-17T06:17:40.908Z,8.05
2023-03-17T06:20:08.153Z,8.13
2023-03-17T06:22:34.682Z,7.89
2023-03-17T06:25:01.222Z,8.12
2023-03-17T06:27:27.758Z,7.74
2023-03-17T06:29:54.281Z,8.05
2023-03-17T06:32:21.264Z,8.31
2023-03-17T06:34:47.873Z,8.34
2023-03-17T06:37:14.625Z,8.30
2023-03-17T06:39:41.193Z,8.34
2023-03-17T06:42:07.874Z,8.40
2023-03-17T06:44:34.597Z,8.30
2023-03-17T06:47:01.096Z,8.45
2023-03-17T06:49:27.660Z,8.42
2023-03-17T06:51:54.141Z,8.43
2023-03-17T06:54:20.797Z,8.48
2023-03-17T06:56:47.613Z,8.50
2023-03-17T06:59:14.068Z,8.59
2023-03-17T07:01:40.604Z,8.62
2023-03-17T07:04:07.336Z,8.62
2023-03-17T07:06:33.923Z,8.63
2023-03-17T07:09:02.273Z,8.57
2023-03-17T07:11:28.931Z,8.69
2023-03-17T07:13:55.439Z,8.29
2023-03-17T07:16:22.063Z,8.72
2023-03-17T07:18:48.677Z,8.72
2023-03-17T07:21:15.221Z,8.64
2023-03-17T07:23:41.678Z,8.63
2023-03-17T07:26:08.464Z,8.70
2023-03-17T07:28:35.255Z,8.55
2023-03-17T07:31:01.922Z,8.69
2023-03-17T07:33:28.986Z,8.68
2023-03-17T07:35:55.844Z,8.77
2023-03-17T07:38:22.366Z,9.09
2023-03-17T07:40:49.328Z,9.11
2023-03-17T07:43:16.592Z,9.33
2023-03-17T07:45:43.988Z,9.37
2023-03-17T07:48:10.682Z,9.78
2023-03-17T07:50:37.573Z,9.47
2023-03-17T07:53:04.356Z,10.17
2023-03-17T07:55:33.760Z,10.13
2023-03-17T07:58:00.344Z,10.22
2023-03-17T08:00:27.274Z,10.62
2023-03-17T08:03:08.883Z,10.47
2023-03-17T08:05:36.188Z,10.66
2023-03-17T08:08:02.674Z,10.56
2023-03-17T08:10:29.662Z,10.63
2023-03-17T08:12:56.499Z,11.00
2023-03-17T08:15:23.062Z,10.81
2023-03-17T08:17:50.789Z,10.94
2023-03-17T08:20:17.614Z,10.98
2023-03-17T08:22:44.120Z,10.78
2023-03-17T08:25:10.659Z,10.64
2023-03-17T08:27:37.436Z,10.72
2023-03-17T08:30:04.795Z,10.66
2023-03-17T08:32:31.387Z,10.37
2023-03-17T08:34:58.008Z,10.58
2023-03-17T08:37:24.490Z,10.49
2023-03-17T08:39:51.069Z,10.69
2023-03-17T08:42:17.676Z,10.64
2023-03-17T08:44:44.265Z,10.92
2023-03-17T08:47:10.754Z,11.26
2023-03-17T08:49:37.214Z,11.11
2023-03-17T08:52:04.826Z,11.64
2023-03-17T08:54:31.468Z,12.18
2023-03-17T08:56:58.495Z,11.89
2023-03-17T08:59:25.055Z,11.78
2023-03-17T09:01:51.499Z,11.85
2023-03-17T09:04:17.978Z,11.45
2023-03-17T09:07:01.686Z,11.48
2023-03-17T09:09:29.177Z,11.49
2023-03-17T09:11:55.676Z,11.96
2023-03-17T09:14:22.301Z,12.10
2023-03-17T09:16:48.784Z,12.38
2023-03-17T09:19:15.402Z,11.65
2023-03-17T09:21:42.222Z,11.78
2023-03-17T09:24:08.947Z,12.19
2023-03-17T09:26:35.939Z,13.07
2023-03-17T09:29:04.366Z,13.23
2023-03-17T09:31:32.671Z,12.56
2023-03-17T09:33:59.391Z,13.47
2023-03-17T09:36:26.001Z,14.02
2023-03-17T09:38:52.704Z,14.15
2023-03-17T09:41:34.476Z,12.84
2023-03-17T09:44:18.408Z,13.01
2023-03-17T09:47:21.711Z,14.52
2023-03-17T09:49:52.163Z,14.10
2023-03-17T09:52:25.684Z,14.95
2023-03-17T09:54:52.298Z,13.35
2023-03-17T09:57:28.984Z,13.48
2023-03-17T10:00:20.683Z,13.36
2023-03-17T10:02:47.266Z,13.33
2023-03-17T10:05:26.807Z,13.34
2023-03-17T10:08:28.919Z,14.14
2023-03-17T10:11:12.005Z,13.43
2023-03-17T10:14:00.169Z,13.78
2023-03-17T10:17:00.523Z,14.31
2023-03-17T10:19:35.799Z,15.51
2023-03-17T10:22:15.232Z,14.89
2023-03-17T10:24:47.209Z,14.83
2023-03-17T10:27:18.338Z,13.82
2023-03-17T10:29:47.839Z,14.51
2023-03-17T10:32:15.203Z,14.81
2023-03-17T10:34:43.183Z,14.16
2023-03-17T10:37:14.482Z,14.02
2023-03-17T10:39:49.519Z,14.19
2023-03-17T10:42:27.740Z,15.48
2023-03-17T10:45:01.332Z,16.46
2023-03-17T10:47:37.541Z,15.01
2023-03-17T10:50:22.282Z,14.32
2023-03-17T10:52:57.226Z,14.42
2023-03-17T10:55:28.369Z,14.40
2023-03-17T10:58:03.136Z,14.54
2023-03-17T11:00:32.078Z,15.14
2023-03-17T11:03:00.116Z,14.70
2023-03-17T11:05:29.280Z,14.98
2023-03-17T11:08:17.365Z,15.00
2023-03-17T11:10:44.913Z,14.80
2023-03-17T11:13:17.054Z,15.47
2023-03-17T11:15:49.690Z,15.65
2023-03-17T11:18:22.828Z,15.55
2023-03-17T11:21:04.963Z,16.00
2023-03-17T11:24:08.282Z,15.00
2023-03-17T11:26:46.848Z,15.75
2023-03-17T11:29:20.407Z,15.23
2023-03-17T11:31:59.181Z,15.11
2023-03-17T11:34:34.939Z,14.61
2023-03-17T11:37:18.840Z,15.07
2023-03-17T11:40:06.444Z,15.07
2023-03-17T11:42:59.602Z,14.92
2023-03-17T11:45:46.670Z,15.29
2023-03-17T11:48:17.056Z,15.48
2023-03-17T11:51:12.946Z,15.57
2023-03-17T11:53:52.909Z,15.23
2023-03-17T11:56:28.638Z,14.83
2023-03-17T11:59:13.583Z,15.16
2023-03-17T12:01:50.230Z,15.37
2023-03-17T12:04:27.696Z,15.20
2023-03-17T12:07:00.789Z,15.60
2023-03-17T12:09:41.417Z,15.55
2023-03-17T12:12:11.009Z,15.99
2023-03-17T12:14:45.543Z,15.53
2023-03-17T12:17:21.700Z,15.73
2023-03-17T12:20:14.343Z,15.67
2023-03-17T12:22:47.689Z,15.84
2023-03-17T12:25:37.994Z,15.98
2023-03-17T12:28:08.886Z,15.96
2023-03-17T12:30:47.790Z,16.36
2023-03-17T12:33:16.994Z,16.49
2023-03-17T12:35:44.917Z,17.19
2023-03-17T12:38:19.218Z,16.47
2023-03-17T12:41:07.314Z,15.98
2023-03-17T12:43:36.928Z,16.64
2023-03-17T12:46:09.485Z,17.31
2023-03-17T12:49:17.668Z,17.17
2023-03-17T12:51:49.846Z,16.94
2023-03-17T12:54:37.638Z,17.09
2023-03-17T12:57:19.253Z,17.10
2023-03-17T12:59:49.490Z,16.69
2023-03-17T13:02:30.429Z,16.08
2023-03-17T13:04:59.098Z,16.44
2023-03-17T13:07:32.593Z,16.65
2023-03-17T13:09:59.155Z,16.18
2023-03-17T13:12:40.810Z,16.77
2023-03-17T13:15:25.728Z,17.20
2023-03-17T13:18:12.512Z,17.56
2023-03-17T13:20:51.329Z,16.81
2023-03-17T13:23:20.834Z,18.30
2023-03-17T13:25:49.005Z,18.51
2023-03-17T13:28:15.440Z,18.53
2023-03-17T13:31:14.496Z,16.71
2023-03-17T13:33:49.690Z,16.96
2023-03-17T13:36:29.235Z,18.11
2023-03-17T13:39:19.663Z,17.89
2023-03-17T13:42:18.132Z,18.24
2023-03-17T13:45:03.688Z,17.47
2023-03-17T13:47:38.870Z,17.06
2023-03-17T13:50:20.939Z,17.60
2023-03-17T13:52:53.447Z,18.47
2023-03-17T13:55:20.683Z,18.37
2023-03-17T13:58:11.397Z,18.36
2023-03-17T14:00:47.775Z,18.41
2023-03-17T14:03:34.323Z,18.00
2023-03-17T14:06:04.597Z,18.19
2023-03-17T14:08:35.798Z,18.60
2023-03-17T14:11:24.048Z,17.86
2023-03-17T14:14:15.138Z,17.26
2023-03-17T14:16:54.176Z,17.71
2023-03-17T14:19:27.578Z,17.90
2023-03-17T14:22:15.818Z,17.63
2023-03-17T14:24:42.411Z,18.31
2023-03-17T14:27:12.354Z,17.50
2023-03-17T14:29:38.900Z,17.70
2023-03-17T14:32:12.405Z,17.65
2023-03-17T14:34:43.593Z,17.47
2023-03-17T14:37:11.644Z,17.18
2023-03-17T14:39:54.834Z,17.35
2023-03-17T14:42:30.812Z,17.61
2023-03-17T14:45:08.433Z,17.94
2023-03-17T14:47:41.142Z,17.78
2023-03-17T14:50:27.990Z,17.59
2023-03-17T14:52:55.088Z,17.37
2023-03-17T14:55:22.152Z,16.81
2023-03-17T14:57:51.619Z,17.13
2023-03-17T15:00:35.135Z,17.13
2023-03-17T15:03:03.122Z,16.83
2023-03-17T15:05:41.269Z,16.85
2023-03-17T15:08:36.568Z,17.12
2023-03-17T15:11:05.413Z,17.15
2023-03-17T15:13:37.586Z,16.77
2023-03-17T15:16:21.509Z,16.97
2023-03-17T15:18:53.668Z,17.04
2023-03-17T15:21:29.751Z,16.96
2023-03-17T15:23:56.274Z,17.27
2023-03-17T15:26:30.806Z,17.11
2023-03-17T15:28:59.504Z,17.18
2023-03-17T15:31:28.475Z,16.81
2023-03-17T15:33:58.376Z,17.08
2023-03-17T15:36:32.698Z,17.10
2023-03-17T15:39:00.525Z,17.26
2023-03-17T15:41:27.158Z,17.10
2023-03-17T15:43:53.732Z,17.15
2023-03-17T15:46:26.465Z,17.13
2023-03-17T15:48:53.426Z,17.23
2023-03-17T15:51:19.887Z,17.10
2023-03-17T15:53:46.413Z,16.97
2023-03-17T15:56:19.216Z,16.92
2023-03-17T15:58:50.141Z,16.49
2023-03-17T16:01:16.803Z,16.73
2023-03-17T16:03:43.901Z,16.93
2023-03-17T16:06:18.556Z,16.65
2023-03-17T16:08:45.619Z,16.54
2023-03-17T16:11:21.451Z,16.87
2023-03-17T16:13:47.989Z,16.72
2023-03-17T16:16:44.998Z,16.60
2023-03-17T16:19:22.497Z,16.90
2023-03-17T16:21:49.135Z,16.73
2023-03-17T16:24:18.948Z,16.45
2023-03-17T16:26:45.865Z,16.29
2023-03-17T16:29:14.212Z,16.58
2023-03-17T16:31:41.357Z,16.59
2023-03-17T16:34:23.231Z,16.66
2023-03-17T16:36:50.569Z,16.55
2023-03-17T16:39:22.367Z,16.62
2023-03-17T16:41:50.358Z,16.83
2023-03-17T16:44:20.390Z,16.29
2023-03-17T16:46:47.549Z,16.61
2023-03-17T16:49:19.913Z,16.45
2023-03-17T16:51:46.918Z,16.41
2023-03-17T16:54:14.234Z,16.50
2023-03-17T16:56:41.414Z,16.50
2023-03-17T16:59:19.573Z,16.68
2023-03-17T17:01:46.114Z,16.40
2023-03-17T17:04:12.852Z,16.38
2023-03-17T17:06:39.384Z,16.35
2023-03-17T17:09:05.897Z,16.25
2023-03-17T17:11:32.362Z,15.74
2023-03-17T17:13:58.908Z,16.30
2023-03-17T17:16:30.860Z,15.74
2023-03-17T17:18:58.448Z,16.06
2023-03-17T17:21:26.127Z,16.22
2023-03-17T17:23:53.279Z,16.25
2023-03-17T17:26:20.417Z,15.93
2023-03-17T17:28:47.193Z,15.97
2023-03-17T17:31:13.759Z,15.91
2023-03-17T17:33:40.288Z,15.51
2023-03-17T17:36:14.340Z,15.61
2023-03-17T17:38:41.089Z,15.77
2023-03-17T17:41:10.775Z,15.41
2023-03-17T17:43:37.584Z,15.53
2023-03-17T17:46:09.279Z,15.62
2023-03-17T17:48:35.759Z,15.29
2023-03-17T17:51:02.349Z,15.46
2023-03-17T17:53:28.872Z,15.32
2023-03-17T17:55:55.386Z,15.43
2023-03-17T17:58:24.488Z,15.27
2023-03-17T18:00:52.579Z,14.65
2023-03-17T18:03:19.216Z,14.69
2023-03-17T18:05:45.700Z,15.32
2023-03-17T18:08:13.998Z,15.02
2023-03-17T18:10:40.648Z,14.61
2023-03-17T18:13:08.584Z,14.93
2023-03-17T18:15:35.353Z,14.98
2023-03-17T18:18:02.202Z,14.76
2023-03-17T18:20:28.723Z,14.84
2023-03-17T18:22:55.238Z,14.69
2023-03-17T18:25:21.737Z,14.71
2023-03-17T18:27:48.473Z,14.63
2023-03-17T18:30:24.897Z,14.50
2023-03-17T18:32:56.017Z,14.62
2023-03-17T18:35:25.324Z,14.54
2023-03-17T18:37:51.864Z,14.39
2023-03-17T18:40:19.447Z,14.52
2023-03-17T18:42:46.843Z,14.49
2023-03-17T18:45:14.117Z,14.47
2023-03-17T18:47:40.797Z,14.37
2023-03-17T18:50:09.481Z,14.42
2023-03-17T18:52:38.785Z,14.19
2023-03-17T18:55:06.043Z,14.29
2023-03-17T18:57:32.647Z,14.22
2023-03-17T18:59:59.497Z,14.22
2023-03-17T19:02:26.116Z,14.17
2023-03-17T19:04:52.677Z,14.18
2023-03-17T19:07:19.297Z,14.18
2023-03-17T19:09:45.870Z,14.13
2023-03-17T19:12:12.485Z,14.14
2023-03-17T19:14:39.527Z,14.09
2023-03-17T19:17:07.528Z,14.00
2023-03-17T19:19:35.267Z,14.03
2023-03-17T19:22:02.189Z,14.06
2023-03-17T19:24:28.784Z,14.00
2023-03-17T19:26:55.285Z,13.65
2023-03-17T19:29:21.858Z,13.99
2023-03-17T19:31:48.838Z,13.98
2023-03-17T19:34:15.393Z,13.92
2023-03-17T19:36:44.063Z,13.68
2023-03-17T19:39:10.779Z,13.83
2023-03-17T19:41:37.663Z,13.72
2023-03-17T19:44:06.185Z,13.66
2023-03-17T19:46:33.498Z,13.81
2023-03-17T19:49:00.088Z,14.01
2023-03-17T19:51:27.474Z,14.04
2023-03-17T19:53:54.696Z,13.83
2023-03-17T19:56:21.492Z,13.98
2023-03-17T19:58:48.029Z,14.03
2023-03-17T20:01:16.135Z,13.81
2023-03-17T20:03:42.827Z,13.72
2023-03-17T20:06:10.943Z,13.83
2023-03-17T20:08:37.529Z,13.84
2023-03-17T20:11:04.907Z,13.86
2023-03-17T20:13:32.168Z,13.35
2023-03-17T20:15:58.800Z,13.81
2023-03-17T20:18:25.377Z,14.07
2023-03-17T20:20:54.520Z,14.16
2023-03-17T20:23:21.416Z,14.16
2023-03-17T20:25:49.087Z,14.03
2023-03-17T20:28:16.861Z,13.77
2023-03-17T20:30:45.113Z,14.18
2023-03-17T20:33:12.618Z,14.09
2023-03-17T20:35:40.930Z,13.93
2023-03-17T20:38:08.055Z,13.78
2023-03-17T20:40:34.778Z,13.64
2023-03-17T20:43:01.437Z,13.28
2023-03-17T20:45:28.211Z,13.36
2023-03-17T20:47:54.749Z,13.36
2023-03-17T20:50:21.495Z,13.13
2023-03-17T20:52:48.433Z,13.21
2023-03-17T20:55:16.820Z,13.15
2023-03-17T20:57:44.637Z,13.00
2023-03-17T21:00:22.124Z,13.09
2023-03-17T21:02:48.925Z,13.05
2023-03-17T21:05:20.304Z,12.90
2023-03-17T21:07:47.608Z,12.76
2023-03-17T21:10:15.336Z,12.80
2023-03-17T21:12:42.243Z,12.95
2023-03-17T21:15:10.543Z,12.95
2023-03-17T21:17:37.856Z,13.02
2023-03-17T21:20:06.374Z,12.92
2023-03-17T21:22:34.147Z,13.12
2023-03-17T21:25:00.845Z,13.05
2023-03-17T21:27:27.479Z,12.71
2023-03-17T21:29:53.950Z,12.84
2023-03-17T21:32:20.577Z,12.69
2023-03-17T21:34:47.185Z,12.79
2023-03-17T21:37:14.399Z,12.53
2023-03-17T21:39:41.034Z,12.34
2023-03-17T21:42:07.615Z,12.30
2023-03-17T21:44:34.252Z,11.89
2023-03-17T21:47:00.765Z,12.17
2023-03-17T21:49:27.478Z,11.76
2023-03-17T21:51:54.165Z,11.86
2023-03-17T21:54:21.368Z,11.79
2023-03-17T21:56:48.674Z,11.45
2023-03-17T21:59:16.004Z,11.43
2023-03-17T22:01:43.271Z,11.16
2023-03-17T22:04:11.120Z,11.88
2023-03-17T22:06:37.762Z,11.76
2023-03-17T22:09:05.835Z,12.03
2023-03-17T22:11:32.329Z,12.03
2023-03-17T22:13:59.192Z,11.70
2023-03-17T22:16:26.054Z,11.65
2023-03-17T22:18:52.784Z,10.64
2023-03-17T22:21:19.377Z,10.35
2023-03-17T22:23:45.942Z,10.64
2023-03-17T22:26:21.391Z,10.71
2023-03-17T22:28:50.032Z,11.13
2023-03-17T22:31:18.448Z,11.29
2023-03-17T22:33:45.486Z,10.47
2023-03-17T22:36:12.705Z,10.09
2023-03-17T22:38:39.382Z,10.32
2023-03-17T22:41:11.371Z,10.42
2023-03-17T22:43:38.302Z,10.46
2023-03-17T22:46:05.533Z,10.75
2023-03-17T22:48:32.399Z,10.69
2023-03-17T22:51:13.767Z,10.96
2023-03-17T22:53:41.368Z,10.95
2023-03-17T22:56:09.122Z,10.88
2023-03-17T22:58:35.939Z,10.41
2023-03-17T23:01:02.979Z,10.95
2023-03-17T23:03:30.233Z,10.92
2023-03-17T23:05:58.999Z,10.93
2023-03-17T23:08:26.985Z,10.60
2023-03-17T23:10:53.880Z,10.47
2023-03-17T23:13:20.886Z,10.49
2023-03-17T23:15:47.521Z,10.59
2023-03-17T23:18:14.182Z,10.72
2023-03-17T23:20:41.546Z,10.60
2023-03-17T23:23:09.915Z,10.48
2023-03-17T23:25:37.054Z,10.39
2023-03-17T23:28:05.366Z,10.39
2023-03-17T23:30:32.110Z,9.86
2023-03-17T23:32:58.843Z,10.46
2023-03-17T23:35:25.689Z,10.54
2023-03-17T23:37:52.326Z,10.65
2023-03-17T23:40:18.938Z,10.51
2023-03-17T23:42:47.218Z,10.40
2023-03-17T23:45:14.083Z,10.46
2023-03-17T23:47:41.327Z,10.42
2023-03-17T23:50:09.456Z,10.05
2023-03-17T23:52:36.044Z,10.66
2023-03-17T23:55:04.279Z,9.95
2023-03-17T23:57:30.871Z,10.48
2023-03-17T23:59:57.353Z,10.33
